createdAt,value
2023-05-21T00:00:51.806Z,15.90
2023-05-21T00:03:18.546Z,16.10
2023-05-21T00:05:45.379Z,16.40
2023-05-21T00:08:13.127Z,16.10
2023-05-21T00:10:39.796Z,16.40
2023-05-21T00:13:06.734Z,16.30
2023-05-21T00:15:33.433Z,16.20
2023-05-21T00:18:00.244Z,16.30
2023-05-21T00:20:26.953Z,16.50
2023-05-21T00:22:53.598Z,16.20
2023-05-21T00:25:20.554Z,16.40
2023-05-21T00:27:47.317Z,16.50
2023-05-21T00:30:16.512Z,16.60
2023-05-21T00:32:43.834Z,16.50
2023-05-21T00:35:10.490Z,16.50
2023-05-21T00:37:37.152Z,16.40
2023-05-21T00:40:06.425Z,16.40
2023-05-21T00:42:33.051Z,16.40
2023-05-21T00:44:59.663Z,16.60
2023-05-21T00:47:26.288Z,16.30
2023-05-21T00:49:52.939Z,16.40
2023-05-21T00:52:19.579Z,16.50
2023-05-21T00:54:46.208Z,16.60
2023-05-21T00:57:12.927Z,16.50
2023-05-21T00:59:39.521Z,16.50
2023-05-21T01:02:06.195Z,16.40
2023-05-21T01:04:33.748Z,16.50
2023-05-21T01:07:00.382Z,16.60
2023-05-21T01:09:26.982Z,16.70
2023-05-21T01:11:53.613Z,16.70
2023-05-21T01:14:20.244Z,16.70
2023-05-21T01:16:47.041Z,16.50
2023-05-21T01:19:15.583Z,16.70
2023-05-21T01:21:42.394Z,16.60
2023-05-21T01:24:09.011Z,16.70
2023-05-21T01:26:38.022Z,16.60
2023-05-21T01:29:04.651Z,16.70
2023-05-21T01:31:31.269Z,16.80
2023-05-21T01:33:57.996Z,16.80
2023-05-21T01:36:24.786Z,16.60
2023-05-21T01:38:51.430Z,16.40
2023-05-21T01:41:18.044Z,16.20
2023-05-21T01:43:44.679Z,16.50
2023-05-21T01:46:12.452Z,16.60
2023-05-21T01:48:39.062Z,16.80
2023-05-21T01:51:05.699Z,16.40
2023-05-21T01:53:32.431Z,16.40
2023-05-21T01:55:59.224Z,16.70
2023-05-21T01:58:25.881Z,16.80
2023-05-21T02:00:52.685Z,16.80
2023-05-21T02:03:20.086Z,16.70
2023-05-21T02:05:46.773Z,16.80
2023-05-21T02:08:14.204Z,16.90
2023-05-21T02:10:40.833Z,16.70
2023-05-21T02:13:08.964Z,16.20
2023-05-21T02:15:39.075Z,16.40
2023-05-21T02:18:05.745Z,16.00
2023-05-21T02:20:32.387Z,16.20
2023-05-21T02:22:59.027Z,16.50
2023-05-21T02:25:25.641Z,16.00
2023-05-21T02:27:52.426Z,16.30
2023-05-21T02:30:21.342Z,16.30
2023-05-21T02:32:49.206Z,16.20
2023-05-21T02:35:15.890Z,16.40
2023-05-21T02:37:42.542Z,16.30
2023-05-21T02:40:09.158Z,15.90
2023-05-21T02:42:37.854Z,16.10
2023-05-21T02:45:04.445Z,15.90
2023-05-21T02:47:31.233Z,15.90
2023-05-21T02:49:59.656Z,16.00
2023-05-21T02:52:26.311Z,16.20
2023-05-21T02:54:52.915Z,16.30
2023-05-21T02:57:19.642Z,16.30
2023-05-21T02:59:46.289Z,16.30
2023-05-21T03:02:13.079Z,16.40
2023-05-21T03:04:39.750Z,16.50
2023-05-21T03:07:06.354Z,16.50
2023-05-21T03:09:33.858Z,16.40
2023-05-21T03:12:00.491Z,16.40
2023-05-21T03:14:27.095Z,16.50
2023-05-21T03:16:53.808Z,16.50
2023-05-21T03:19:20.433Z,16.00
2023-05-21T03:21:47.275Z,16.20
2023-05-21T03:24:14.309Z,16.20
2023-05-21T03:26:40.910Z,16.30
2023-05-21T03:29:07.611Z,16.00
2023-05-21T03:31:34.279Z,16.00
2023-05-21T03:34:01.219Z,15.80
2023-05-21T03:36:27.863Z,15.90
2023-05-21T03:38:56.272Z,15.80
2023-05-21T03:41:23.796Z,15.50
2023-05-21T03:43:50.537Z,15.60
2023-05-21T03:46:17.170Z,15.70
2023-05-21T03:48:43.901Z,15.60
2023-05-21T03:51:10.499Z,15.60
2023-05-21T03:53:37.121Z,15.80
2023-05-21T03:56:03.832Z,15.70
2023-05-21T03:58:30.432Z,15.90
2023-05-21T04:00:57.063Z,16.10
2023-05-21T04:03:23.801Z,16.00
2023-05-21T04:05:50.690Z,16.10
2023-05-21T04:08:17.348Z,16.20
2023-05-21T04:10:43.977Z,16.20
2023-05-21T04:13:10.586Z,16.10
2023-05-21T04:15:37.375Z,16.10
2023-05-21T04:18:04.261Z,16.40
2023-05-21T04:20:30.899Z,16.50
2023-05-21T04:22:57.888Z,16.40
2023-05-21T04:25:24.721Z,16.40
2023-05-21T04:27:51.744Z,16.50
2023-05-21T04:30:18.392Z,16.70
2023-05-21T04:32:45.051Z,16.90
2023-05-21T04:35:11.707Z,17.00
2023-05-21T04:37:38.430Z,17.20
2023-05-21T04:40:05.075Z,17.20
2023-05-21T04:42:31.689Z,17.40
2023-05-21T04:44:58.310Z,17.60
2023-05-21T04:47:24.969Z,18.00
2023-05-21T04:49:52.727Z,18.20
2023-05-21T04:52:19.322Z,18.40
2023-05-21T04:54:45.965Z,18.30
2023-05-21T04:57:12.762Z,18.50
2023-05-21T04:59:39.390Z,18.40
2023-05-21T05:02:06.031Z,18.60
2023-05-21T05:04:32.637Z,18.70
2023-05-21T05:07:00.770Z,18.90
2023-05-21T05:09:27.362Z,19.10
2023-05-21T05:11:53.953Z,19.30
2023-05-21T05:14:20.583Z,19.50
2023-05-21T05:16:48.379Z,19.70
2023-05-21T05:19:15.172Z,19.80
2023-05-21T05:21:41.884Z,19.90
2023-05-21T05:24:08.548Z,19.90
2023-05-21T05:26:35.176Z,19.80
2023-05-21T05:29:01.781Z,19.60
2023-05-21T05:31:28.495Z,19.60
2023-05-21T05:33:55.130Z,19.90
2023-05-21T05:36:21.728Z,19.30
2023-05-21T05:38:48.410Z,19.60
2023-05-21T05:41:15.030Z,19.90
2023-05-21T05:43:41.983Z,20.20
2023-05-21T05:46:09.688Z,20.40
2023-05-21T05:48:36.305Z,20.30
2023-05-21T05:51:02.976Z,20.50
2023-05-21T05:53:29.726Z,20.90
2023-05-21T05:55:56.358Z,21.30
2023-05-21T05:58:22.956Z,20.70
2023-05-21T06:00:49.590Z,20.20
2023-05-21T06:03:16.369Z,20.80
2023-05-21T06:05:43.073Z,21.00
2023-05-21T06:08:09.730Z,20.80
2023-05-21T06:10:36.368Z,21.20
2023-05-21T06:13:03.021Z,21.30
2023-05-21T06:15:29.618Z,21.40
2023-05-21T06:17:56.254Z,21.30
2023-05-21T06:20:23.240Z,21.00
2023-05-21T06:22:49.850Z,20.90
2023-05-21T06:25:18.595Z,21.00
2023-05-21T06:27:45.221Z,21.20
2023-05-21T06:30:11.900Z,21.20
2023-05-21T06:32:38.813Z,21.70
2023-05-21T06:35:05.828Z,21.60
2023-05-21T06:37:32.430Z,21.70
2023-05-21T06:39:59.181Z,21.80
2023-05-21T06:42:25.818Z,21.80
2023-05-21T06:44:52.444Z,22.30
2023-05-21T06:47:19.067Z,22.00
2023-05-21T06:49:45.692Z,21.80
2023-05-21T06:52:12.731Z,21.60
2023-05-21T06:54:39.405Z,21.40
2023-05-21T06:57:06.512Z,21.10
2023-05-21T06:59:33.219Z,20.60
2023-05-21T07:02:00.165Z,20.60
2023-05-21T07:04:27.652Z,20.90
2023-05-21T07:06:54.255Z,21.40
2023-05-21T07:09:20.889Z,21.70
2023-05-21T07:11:47.491Z,21.70
2023-05-21T07:14:14.126Z,21.90
2023-05-21T07:16:41.879Z,22.00
2023-05-21T07:19:08.775Z,22.00
2023-05-21T07:21:35.652Z,21.90
2023-05-21T07:24:02.298Z,22.00
2023-05-21T07:26:30.117Z,22.00
2023-05-21T07:28:56.723Z,21.90
2023-05-21T07:31:23.368Z,21.60
2023-05-21T07:33:50.201Z,22.20
2023-05-21T07:36:16.890Z,22.30
2023-05-21T07:38:45.504Z,22.40
2023-05-21T07:41:12.130Z,22.50
2023-05-21T07:43:38.760Z,22.30
2023-05-21T07:46:05.469Z,22.90
2023-05-21T07:48:34.719Z,22.90
2023-05-21T07:51:02.083Z,23.20
2023-05-21T07:53:30.945Z,23.20
2023-05-21T07:55:57.566Z,23.60
2023-05-21T07:58:24.205Z,23.40
2023-05-21T08:00:50.811Z,23.00
2023-05-21T08:03:17.666Z,23.30
2023-05-21T08:05:44.337Z,23.30
2023-05-21T08:08:10.981Z,23.20
2023-05-21T08:10:37.618Z,23.60
2023-05-21T08:13:04.236Z,24.00
2023-05-21T08:15:30.865Z,23.70
2023-05-21T08:17:57.623Z,23.20
2023-05-21T08:20:24.308Z,23.30
2023-05-21T08:22:52.339Z,23.40
2023-05-21T08:25:19.020Z,23.20
2023-05-21T08:27:45.665Z,23.50
2023-05-21T08:30:12.366Z,24.10
2023-05-21T08:32:39.020Z,24.50
2023-05-21T08:35:06.378Z,24.40
2023-05-21T08:37:33.018Z,24.80
2023-05-21T08:39:59.640Z,25.00
2023-05-21T08:42:36.197Z,24.80
2023-05-21T08:45:04.668Z,25.10
2023-05-21T08:47:31.377Z,25.10
2023-05-21T08:49:58.006Z,24.80
2023-05-21T08:52:24.629Z,24.80
2023-05-21T08:54:51.740Z,24.00
2023-05-21T08:57:18.388Z,23.90
2023-05-21T08:59:45.360Z,24.10
2023-05-21T09:02:12.055Z,24.70
2023-05-21T09:04:38.857Z,24.80
2023-05-21T09:07:05.834Z,25.30
2023-05-21T09:09:32.437Z,25.10
2023-05-21T09:11:59.061Z,24.70
2023-05-21T09:14:25.675Z,25.20
2023-05-21T09:16:52.363Z,25.70
2023-05-21T09:19:19.277Z,25.30
2023-05-21T09:21:45.910Z,25.20
2023-05-21T09:24:12.664Z,25.10
2023-05-21T09:26:39.364Z,24.70
2023-05-21T09:29:05.999Z,24.60
2023-05-21T09:31:33.173Z,24.10
2023-05-21T09:33:59.871Z,24.50
2023-05-21T09:36:26.516Z,24.80
2023-05-21T09:38:53.728Z,24.60
2023-05-21T09:41:22.203Z,24.80
2023-05-21T09:43:49.302Z,25.50
2023-05-21T09:46:15.999Z,25.70
2023-05-21T09:48:42.832Z,25.70
2023-05-21T09:51:09.452Z,25.70
2023-05-21T09:53:36.131Z,25.40
2023-05-21T09:56:02.815Z,25.30
2023-05-21T09:58:29.448Z,25.60
2023-05-21T10:00:56.149Z,25.80
2023-05-21T10:03:22.807Z,25.30
2023-05-21T10:05:51.834Z,25.70
2023-05-21T10:08:18.487Z,25.70
2023-05-21T10:10:45.105Z,25.30
2023-05-21T10:13:11.944Z,25.80
2023-05-21T10:15:38.853Z,26.40
2023-05-21T10:18:06.577Z,27.00
2023-05-21T10:20:33.370Z,27.10
2023-05-21T10:23:00.005Z,27.40
2023-05-21T10:25:26.644Z,27.50
2023-05-21T10:27:53.267Z,27.70
2023-05-21T10:30:19.894Z,28.00
2023-05-21T10:32:46.732Z,28.10
2023-05-21T10:35:13.479Z,27.50
2023-05-21T10:37:40.106Z,27.50
2023-05-21T10:40:06.720Z,27.70
2023-05-21T10:42:33.362Z,27.80
2023-05-21T10:45:00.096Z,27.60
2023-05-21T10:47:26.880Z,28.00
2023-05-21T10:49:53.675Z,28.20
2023-05-21T10:52:20.281Z,27.50
2023-05-21T10:54:46.939Z,26.80
2023-05-21T10:57:17.352Z,26.70
2023-05-21T10:59:44.905Z,27.00
2023-05-21T11:02:12.591Z,27.40
2023-05-21T11:04:39.277Z,27.90
2023-05-21T11:07:05.890Z,28.20
2023-05-21T11:09:32.523Z,27.50
2023-05-21T11:11:59.157Z,26.90
2023-05-21T11:14:25.842Z,26.80
2023-05-21T11:16:52.751Z,26.70
2023-05-21T11:19:19.467Z,26.90
2023-05-21T11:21:46.139Z,27.30
2023-05-21T11:24:12.742Z,27.20
2023-05-21T11:26:39.383Z,27.30
2023-05-21T11:29:06.255Z,27.10
2023-05-21T11:31:33.264Z,26.80
2023-05-21T11:33:59.907Z,26.60
2023-05-21T11:36:26.498Z,26.20
2023-05-21T11:38:53.154Z,25.80
2023-05-21T11:41:19.767Z,25.70
2023-05-21T11:43:46.429Z,25.80
2023-05-21T11:46:13.199Z,26.30
2023-05-21T11:48:39.855Z,26.40
2023-05-21T11:51:06.450Z,26.10
2023-05-21T11:53:33.088Z,26.00
2023-05-21T11:55:59.708Z,25.10
2023-05-21T11:58:26.341Z,25.50
2023-05-21T12:00:52.977Z,26.00
2023-05-21T12:03:19.686Z,26.30
2023-05-21T12:05:46.533Z,25.70
2023-05-21T12:08:13.230Z,25.80
2023-05-21T12:10:39.866Z,25.70
2023-05-21T12:13:06.466Z,26.20
2023-05-21T12:15:33.096Z,26.30
2023-05-21T12:17:59.814Z,26.40
2023-05-21T12:20:26.515Z,26.10
2023-05-21T12:22:53.138Z,26.10
2023-05-21T12:25:19.773Z,25.90
2023-05-21T12:27:46.421Z,25.80
2023-05-21T12:30:13.083Z,25.80
2023-05-21T12:32:39.690Z,25.90
2023-05-21T12:35:06.401Z,26.40
2023-05-21T12:37:33.806Z,27.00
2023-05-21T12:40:00.961Z,27.50
2023-05-21T12:42:27.609Z,27.50
2023-05-21T12:44:54.250Z,27.70
2023-05-21T12:47:20.910Z,27.50
2023-05-21T12:49:47.543Z,27.00
2023-05-21T12:52:14.486Z,26.90
2023-05-21T12:54:41.113Z,27.00
2023-05-21T12:57:07.743Z,27.20
2023-05-21T12:59:34.389Z,27.40
2023-05-21T13:02:01.064Z,27.40
2023-05-21T13:04:27.714Z,27.30
2023-05-21T13:06:54.363Z,27.60
2023-05-21T13:09:21.015Z,27.80
2023-05-21T13:11:47.611Z,27.70
2023-05-21T13:14:14.255Z,28.20
2023-05-21T13:16:40.957Z,28.30
2023-05-21T13:19:07.936Z,28.50
2023-05-21T13:21:34.548Z,28.40
2023-05-21T13:24:01.216Z,27.90
2023-05-21T13:26:27.951Z,27.60
2023-05-21T13:28:55.804Z,27.80
2023-05-21T13:31:30.278Z,28.30
2023-05-21T13:33:57.223Z,28.40
2023-05-21T13:36:24.123Z,28.50
2023-05-21T13:38:50.756Z,28.40
2023-05-21T13:41:17.373Z,28.40
2023-05-21T13:43:43.985Z,28.50
2023-05-21T13:46:10.640Z,28.50
2023-05-21T13:48:37.271Z,28.40
2023-05-21T13:51:04.123Z,28.60
2023-05-21T13:53:30.769Z,28.90
2023-05-21T13:55:57.389Z,29.00
2023-05-21T13:58:24.036Z,29.50
2023-05-21T14:00:50.698Z,28.80
2023-05-21T14:03:17.364Z,28.90
2023-05-21T14:05:44.012Z,28.30
2023-05-21T14:08:11.070Z,28.80
2023-05-21T14:10:38.060Z,28.50
2023-05-21T14:13:18.376Z,28.40
2023-05-21T14:15:46.883Z,28.10
2023-05-21T14:18:13.528Z,28.50
2023-05-21T14:20:41.619Z,27.70
2023-05-21T14:23:08.231Z,27.50
2023-05-21T14:25:35.082Z,27.60
2023-05-21T14:28:02.010Z,27.60
2023-05-21T14:30:28.631Z,27.30
2023-05-21T14:32:57.798Z,27.30
2023-05-21T14:35:24.625Z,27.60
2023-05-21T14:37:51.764Z,27.40
2023-05-21T14:40:18.562Z,27.50
2023-05-21T14:42:45.560Z,27.30
2023-05-21T14:45:19.108Z,27.60
2023-05-21T14:47:46.187Z,27.40
2023-05-21T14:50:12.861Z,27.90
2023-05-21T14:52:39.511Z,28.30
2023-05-21T14:55:06.109Z,28.50
2023-05-21T14:57:32.748Z,28.30
2023-05-21T14:59:59.352Z,28.70
2023-05-21T15:02:26.064Z,29.20
2023-05-21T15:04:52.857Z,29.10
2023-05-21T15:07:19.597Z,28.60
2023-05-21T15:09:46.618Z,28.20
2023-05-21T15:12:13.626Z,28.20
2023-05-21T15:14:40.254Z,28.80
2023-05-21T15:17:06.862Z,29.20
2023-05-21T15:19:33.647Z,28.90
2023-05-21T15:22:01.148Z,28.70
2023-05-21T15:24:27.772Z,28.50
2023-05-21T15:26:54.402Z,28.70
2023-05-21T15:29:21.055Z,27.80
2023-05-21T15:31:49.274Z,27.30
2023-05-21T15:34:15.905Z,27.30
2023-05-21T15:36:42.553Z,27.30
2023-05-21T15:39:09.171Z,27.10
2023-05-21T15:41:35.779Z,27.00
2023-05-21T15:44:02.558Z,27.10
2023-05-21T15:46:29.202Z,26.80
2023-05-21T15:48:55.842Z,26.60
2023-05-21T15:51:22.476Z,25.90
2023-05-21T15:53:49.131Z,25.90
2023-05-21T15:56:16.479Z,25.90
2023-05-21T15:58:43.187Z,25.50
2023-05-21T16:01:09.870Z,25.50
2023-05-21T16:03:36.559Z,25.40
2023-05-21T16:06:03.190Z,25.70
2023-05-21T16:08:29.813Z,26.00
2023-05-21T16:10:56.589Z,26.00
2023-05-21T16:13:23.217Z,25.80
2023-05-21T16:15:49.852Z,25.60
2023-05-21T16:18:16.826Z,25.30
2023-05-21T16:20:43.488Z,25.20
2023-05-21T16:23:10.091Z,25.40
2023-05-21T16:25:37.111Z,25.60
2023-05-21T16:28:04.072Z,25.40
2023-05-21T16:30:30.698Z,25.10
2023-05-21T16:32:57.380Z,25.00
2023-05-21T16:35:26.574Z,25.20
2023-05-21T16:37:53.219Z,25.30
2023-05-21T16:40:19.878Z,25.60
2023-05-21T16:42:46.500Z,25.50
2023-05-21T16:45:13.143Z,25.30
2023-05-21T16:47:40.121Z,25.80
2023-05-21T16:50:06.810Z,25.70
2023-05-21T16:52:33.466Z,25.60
2023-05-21T16:55:00.078Z,26.00
2023-05-21T16:57:27.861Z,25.90
2023-05-21T16:59:54.549Z,25.90
2023-05-21T17:02:21.245Z,26.80
2023-05-21T17:04:47.931Z,28.90
2023-05-21T17:07:14.576Z,28.90
2023-05-21T17:09:41.190Z,28.70
2023-05-21T17:12:07.801Z,27.60
2023-05-21T17:14:35.781Z,27.30
2023-05-21T17:17:03.357Z,27.10
2023-05-21T17:19:30.147Z,26.40
2023-05-21T17:21:56.870Z,26.40
2023-05-21T17:24:23.500Z,26.20
2023-05-21T17:26:50.144Z,26.20
2023-05-21T17:29:16.792Z,26.30
2023-05-21T17:31:43.547Z,25.80
2023-05-21T17:34:10.570Z,25.50
2023-05-21T17:36:37.168Z,25.60
2023-05-21T17:39:06.134Z,25.80
2023-05-21T17:41:36.058Z,25.80
2023-05-21T17:44:02.733Z,25.80
2023-05-21T17:46:29.406Z,25.60
2023-05-21T17:48:56.081Z,25.50
2023-05-21T17:51:22.773Z,25.40
2023-05-21T17:53:49.464Z,24.90
2023-05-21T17:56:16.091Z,25.00
2023-05-21T17:58:43.883Z,25.20
2023-05-21T18:01:10.503Z,25.00
2023-05-21T18:03:37.209Z,25.10
2023-05-21T18:06:03.846Z,24.80
2023-05-21T18:08:31.836Z,24.60
2023-05-21T18:10:58.450Z,24.80
2023-05-21T18:13:25.095Z,24.40
2023-05-21T18:15:52.104Z,24.30
2023-05-21T18:18:21.465Z,24.20
2023-05-21T18:20:48.351Z,24.30
2023-05-21T18:23:14.959Z,24.40
2023-05-21T18:25:41.602Z,24.00
2023-05-21T18:28:08.246Z,23.60
2023-05-21T18:30:35.179Z,23.50
2023-05-21T18:33:02.123Z,23.40
2023-05-21T18:35:28.825Z,23.50
2023-05-21T18:37:55.542Z,23.40
2023-05-21T18:40:22.203Z,23.40
2023-05-21T18:42:48.811Z,23.40
2023-05-21T18:45:15.460Z,23.30
2023-05-21T18:47:43.177Z,23.30
2023-05-21T18:50:09.890Z,23.00
2023-05-21T18:52:36.497Z,23.00
2023-05-21T18:55:03.120Z,23.00
2023-05-21T18:57:29.716Z,23.00
2023-05-21T18:59:57.043Z,23.00
2023-05-21T19:02:25.057Z,22.90
2023-05-21T19:04:51.720Z,22.80
2023-05-21T19:07:18.379Z,22.50
2023-05-21T19:09:45.073Z,22.50
2023-05-21T19:12:11.871Z,22.40
2023-05-21T19:14:38.522Z,22.40
2023-05-21T19:17:05.179Z,22.30
2023-05-21T19:19:31.915Z,22.00
2023-05-21T19:21:58.626Z,22.00
2023-05-21T19:24:25.239Z,21.80
2023-05-21T19:26:51.896Z,21.60
2023-05-21T19:29:18.558Z,21.40
2023-05-21T19:31:45.313Z,20.90
2023-05-21T19:34:11.985Z,20.90
2023-05-21T19:36:52.115Z,20.90
2023-05-21T19:39:19.897Z,20.80
2023-05-21T19:41:46.630Z,20.50
2023-05-21T19:44:13.270Z,20.80
2023-05-21T19:46:39.896Z,21.00
2023-05-21T19:49:06.536Z,21.10
2023-05-21T19:51:35.461Z,21.10
2023-05-21T19:54:02.121Z,21.00
2023-05-21T19:56:28.745Z,20.00
2023-05-21T19:58:55.349Z,20.10
2023-05-21T20:01:22.071Z,20.40
2023-05-21T20:03:48.755Z,20.60
2023-05-21T20:06:15.460Z,20.80
2023-05-21T20:08:42.156Z,20.50
2023-05-21T20:11:08.902Z,20.30
2023-05-21T20:13:35.495Z,20.30
2023-05-21T20:16:02.133Z,20.40
2023-05-21T20:18:29.081Z,20.50
2023-05-21T20:20:55.725Z,20.50
2023-05-21T20:23:22.349Z,20.40
2023-05-21T20:25:48.987Z,20.50
2023-05-21T20:28:15.612Z,20.50
2023-05-21T20:30:42.284Z,20.00
2023-05-21T20:33:08.935Z,19.60
2023-05-21T20:35:35.544Z,19.60
2023-05-21T20:38:02.382Z,19.60
2023-05-21T20:40:29.027Z,19.80
2023-05-21T20:42:55.619Z,19.10
2023-05-21T20:45:22.642Z,18.90
2023-05-21T20:47:49.299Z,19.30
2023-05-21T20:50:16.139Z,19.60
2023-05-21T20:52:44.496Z,19.40
2023-05-21T20:55:12.992Z,19.20
2023-05-21T20:57:39.586Z,19.10
2023-05-21T21:00:06.209Z,19.30
2023-05-21T21:02:32.922Z,18.70
2023-05-21T21:04:59.598Z,19.00
2023-05-21T21:07:26.258Z,18.80
2023-05-21T21:09:53.192Z,18.60
2023-05-21T21:12:25.207Z,18.90
2023-05-21T21:14:52.939Z,18.90
2023-05-21T21:17:19.626Z,18.80
2023-05-21T21:19:46.316Z,18.90
2023-05-21T21:22:13.169Z,19.10
2023-05-21T21:24:39.793Z,19.10
2023-05-21T21:27:07.664Z,19.20
2023-05-21T21:29:34.289Z,19.30
2023-05-21T21:32:00.878Z,19.30
2023-05-21T21:34:27.516Z,18.50
2023-05-21T21:39:38.730Z,18.80
2023-05-21T21:42:05.364Z,19.00
2023-05-21T21:44:32.000Z,18.70
2023-05-21T21:46:59.424Z,18.80
2023-05-21T21:49:26.617Z,18.80
2023-05-21T21:51:53.545Z,18.90
2023-05-21T21:54:20.221Z,19.00
2023-05-21T21:56:47.237Z,18.80
2023-05-21T21:59:13.873Z,18.70
2023-05-21T22:01:40.787Z,18.40
2023-05-21T22:04:07.503Z,18.50
2023-05-21T22:06:34.633Z,18.70
2023-05-21T22:09:01.406Z,18.60
2023-05-21T22:11:28.069Z,18.40
2023-05-21T22:13:54.693Z,18.60
2023-05-21T22:16:21.637Z,18.20
2023-05-21T22:18:48.263Z,18.40
2023-05-21T22:21:14.898Z,18.00
2023-05-21T22:23:41.519Z,18.30
2023-05-21T22:26:08.158Z,18.30
2023-05-21T22:28:34.822Z,18.40
2023-05-21T22:31:01.956Z,18.50
2023-05-21T22:33:28.635Z,17.90
2023-05-21T22:35:55.412Z,18.10
2023-05-21T22:38:22.081Z,18.10
2023-05-21T22:40:48.700Z,17.90
2023-05-21T22:43:15.354Z,18.00
2023-05-21T22:45:41.997Z,17.80
2023-05-21T22:48:08.667Z,17.90
2023-05-21T22:50:35.343Z,17.50
2023-05-21T22:53:01.999Z,17.70
2023-05-21T22:55:28.637Z,17.80
2023-05-21T22:57:55.282Z,18.10
2023-05-21T23:00:21.951Z,18.30
2023-05-21T23:02:49.151Z,18.30
2023-05-21T23:05:16.451Z,18.30
2023-05-21T23:07:43.125Z,18.20
2023-05-21T23:10:09.752Z,18.40
2023-05-21T23:12:36.367Z,18.20
2023-05-21T23:15:02.994Z,17.90
2023-05-21T23:17:29.640Z,17.90
2023-05-21T23:19:56.314Z,18.00
2023-05-21T23:22:23.899Z,17.70
2023-05-21T23:24:51.340Z,17.30
2023-05-21T23:27:18.078Z,17.70
2023-05-21T23:29:46.749Z,17.90
2023-05-21T23:32:13.510Z,18.10
2023-05-21T23:34:40.159Z,18.10
2023-05-21T23:37:06.780Z,18.20
2023-05-21T23:39:33.403Z,18.20
2023-05-21T23:42:00.137Z,18.20
2023-05-21T23:44:26.840Z,18.10
2023-05-21T23:46:53.475Z,18.00
2023-05-21T23:49:20.289Z,17.90
2023-05-21T23:51:46.894Z,17.70
2023-05-21T23:54:13.517Z,17.70
2023-05-21T23:56:40.300Z,17.80
2023-05-21T23:59:06.922Z,17.80
